地図

経路データ

SID SEASON NUMBER BASIN SUBBASIN NAME ISO_TIME NATURE LAT LON WMO_WIND WMO_PRES WMO_AGENCY TRACK_TYPE DIST2LAND LANDFALL IFLAG USA_AGENCY USA_ATCF_ID USA_LAT USA_LON USA_RECORD USA_STATUS USA_WIND USA_PRES USA_SSHS USA_R34_NE USA_R34_SE USA_R34_SW USA_R34_NW USA_R50_NE USA_R50_SE USA_R50_SW USA_R50_NW USA_R64_NE USA_R64_SE USA_R64_SW USA_R64_NW USA_POCI USA_ROCI USA_RMW USA_EYE TOKYO_LAT TOKYO_LON TOKYO_GRADE TOKYO_WIND TOKYO_PRES TOKYO_R50_DIR TOKYO_R50_LONG TOKYO_R50_SHORT TOKYO_R30_DIR TOKYO_R30_LONG TOKYO_R30_SHORT TOKYO_LAND CMA_LAT CMA_LON CMA_CAT CMA_WIND CMA_PRES HKO_LAT HKO_LON HKO_CAT HKO_WIND HKO_PRES NEWDELHI_LAT NEWDELHI_LON NEWDELHI_GRADE NEWDELHI_WIND NEWDELHI_PRES NEWDELHI_CI NEWDELHI_DP NEWDELHI_POCI REUNION_LAT REUNION_LON REUNION_TYPE REUNION_WIND REUNION_PRES REUNION_TNUM REUNION_CI REUNION_RMW REUNION_R34_NE REUNION_R34_SE REUNION_R34_SW REUNION_R34_NW REUNION_R50_NE REUNION_R50_SE REUNION_R50_SW REUNION_R50_NW REUNION_R64_NE REUNION_R64_SE REUNION_R64_SW REUNION_R64_NW BOM_LAT BOM_LON BOM_TYPE BOM_WIND BOM_PRES BOM_TNUM BOM_CI BOM_RMW BOM_R34_NE BOM_R34_SE BOM_R34_SW BOM_R34_NW BOM_R50_NE BOM_R50_SE BOM_R50_SW BOM_R50_NW BOM_R64_NE BOM_R64_SE BOM_R64_SW BOM_R64_NW BOM_ROCI BOM_POCI BOM_EYE BOM_POS_METHOD BOM_PRES_METHOD NADI_LAT NADI_LON NADI_CAT NADI_WIND NADI_PRES WELLINGTON_LAT WELLINGTON_LON WELLINGTON_WIND WELLINGTON_PRES DS824_LAT DS824_LON DS824_STAGE DS824_WIND DS824_PRES TD9636_LAT TD9636_LON TD9636_STAGE TD9636_WIND TD9636_PRES TD9635_LAT TD9635_LON TD9635_WIND TD9635_PRES TD9635_ROCI NEUMANN_LAT NEUMANN_LON NEUMANN_CLASS NEUMANN_WIND NEUMANN_PRES MLC_LAT MLC_LON MLC_CLASS MLC_WIND MLC_PRES USA_GUST BOM_GUST BOM_GUST_PER REUNION_GUST REUNION_GUST_PER USA_SEAHGT USA_SEARAD_NE USA_SEARAD_SE USA_SEARAD_SW USA_SEARAD_NW STORM_SPEED STORM_DIR
1949294N10095 1949 95 NI BB NOT_NAMED 1949-10-20 18:00:00 TS 9.80000 95.1000 main 365 365 O________O____ jtwc_io IO121949 9.80000 95.1000 -1 9.80000 95.1000 TC 2 269
1949294N10095 1949 95 NI BB NOT_NAMED 1949-10-20 21:00:00 TS 9.79751 94.9900 main 376 376 P________P____ IO121949 9.79751 94.9900 -1 9.79751 94.9900 TC 2 270
1949294N10095 1949 95 NI BB NOT_NAMED 1949-10-21 00:00:00 TS 9.80000 94.9000 main 386 386 O________O____ jtwc_io IO121949 9.80000 94.9000 -1 9.80000 94.9000 TC 25 2 274
1949294N10095 1949 95 NI BB NOT_NAMED 1949-10-21 03:00:00 TS 9.80666 94.8378 main 397 397 P________PO___ IO121949 9.80750 94.8425 -1 9.80750 94.8425 TC 25 9.80000 94.8000 1 1 267
1949294N10095 1949 95 NI BB NOT_NAMED 1949-10-21 06:00:00 TS 9.79438 94.7881 main 397 397 O________OP___ jtwc_io IO121949 9.80000 94.8000 -1 9.80000 94.8000 TC 25 9.77190 94.7406 1 1 241
1949294N10095 1949 95 NI BB NOT_NAMED 1949-10-21 09:00:00 TS 9.74865 94.7323 main 405 405 P________PP___ IO121949 9.75000 94.7500 -1 9.75000 94.7500 TC 25 9.74504 94.6850 1 1 230
1949294N10095 1949 95 NI BB NOT_NAMED 1949-10-21 12:00:00 TS 9.70689 94.6790 main 405 405 O________OP___ jtwc_io IO121949 9.70000 94.7000 -1 9.70000 94.7000 TC 25 9.72066 94.6369 1 1 241
1949294N10095 1949 95 NI BB NOT_NAMED 1949-10-21 15:00:00 TS 9.69500 94.6333 main 416 416 P________PO___ IO121949 9.69250 94.6500 -1 9.69250 94.6500 TC 25 9.70000 94.6000 1 1 262
1949294N10095 1949 95 NI BB NOT_NAMED 1949-10-21 18:00:00 TS 9.69488 94.5915 main 416 416 O________OP___ jtwc_io IO121949 9.70000 94.6000 -1 9.70000 94.6000 TC 25 9.68464 94.5744 1 1 268
1949294N10095 1949 95 NI BB NOT_NAMED 1949-10-21 21:00:00 TS 9.69247 94.5533 main 416 416 P________PP___ IO121949 9.69999 94.5575 -1 9.69999 94.5575 TC 25 9.67742 94.5450 1 1 269
1949294N10095 1949 95 NI BB NOT_NAMED 1949-10-22 00:00:00 TS 9.69383 94.4977 main 426 426 O________OP___ jtwc_io IO121949 9.70000 94.5000 -1 9.70000 94.5000 TC 25 9.68149 94.4931 1 1 269
1949294N10095 1949 95 NI BB NOT_NAMED 1949-10-22 03:00:00 TS 9.68998 94.4200 main 437 437 P________PO___ IO121949 9.68497 94.4300 -1 9.68497 94.4300 TC 25 9.70000 94.4000 1 2 275
1949294N10095 1949 95 NI BB NOT_NAMED 1949-10-22 06:00:00 TS 9.71325 94.2797 main 448 448 O________OP___ jtwc_io IO121949 9.70000 94.3000 -1 9.70000 94.3000 TC 25 9.73975 94.2391 1 4 287
1949294N10095 1949 95 NI BB NOT_NAMED 1949-10-22 09:00:00 TS 9.79755 94.0559 main 472 472 P________PP___ IO121949 9.80004 94.0651 -1 9.80004 94.0651 TC 25 9.79259 94.0376 1 5 290
1949294N10095 1949 95 NI BB NOT_NAMED 1949-10-22 12:00:00 TS 9.88304 93.8058 main 505 505 O________OP___ jtwc_io IO121949 9.90000 93.8000 -1 9.90000 93.8000 TC 25 9.84913 93.8172 1 5 284
1949294N10095 1949 95 NI BB NOT_NAMED 1949-10-22 15:00:00 TS 9.90999 93.5900 main 513 513 P________PO___ IO121949 9.91499 93.5850 -1 9.91499 93.5850 TC 25 9.90000 93.6000 1 4 274
1949294N10095 1949 95 NI BB NOT_NAMED 1949-10-22 18:00:00 TS 9.90800 93.4073 main 521 521 O________OP___ jtwc_io IO121949 9.90000 93.4000 -1 9.90000 93.4000 TC 25 9.92400 93.4218 1 3 269
1949294N10095 1949 95 NI BB NOT_NAMED 1949-10-22 21:00:00 TS 9.90412 93.2499 main 529 529 P________PP___ IO121949 9.88497 93.2500 -1 9.88497 93.2500 TC 25 9.94241 93.2499 1 3 273
1949294N10095 1949 95 NI BB NOT_NAMED 1949-10-23 00:00:00 TS 9.92154 93.0927 main 534 534 O________OP___ jtwc_io IO121949 9.90000 93.1000 -1 9.90000 93.1000 TC 25 9.96463 93.0781 1 4 285
1949294N10095 1949 95 NI BB NOT_NAMED 1949-10-23 03:00:00 TS 9.99500 92.9050 main 554 554 P________PO___ IO121949 9.99250 92.9075 -1 9.99250 92.9075 TC 25 10.0000 92.9000 1 4 293
1949294N10095 1949 95 NI BB NOT_NAMED 1949-10-23 06:00:00 TS 10.0869 92.7011 main 574 574 O________OP___ jtwc_io IO121949 10.1000 92.7000 -1 10.1000 92.7000 TC 25 10.0606 92.7032 1 4 291
1949294N10095 1949 95 NI BB NOT_NAMED 1949-10-23 09:00:00 TS 10.1450 92.5000 main 585 585 P________PP___ IO121949 10.1500 92.5000 -1 10.1500 92.5000 TC 25 10.1350 92.5000 1 4 287
1949294N10095 1949 95 NI BB NOT_NAMED 1949-10-23 12:00:00 TS 10.2056 92.2990 main 606 606 O________OP___ jtwc_io IO121949 10.2000 92.3000 -1 10.2000 92.3000 TC 25 10.2169 92.2969 1 4 291
1949294N10095 1949 95 NI BB NOT_NAMED 1949-10-23 15:00:00 TS 10.3000 92.0950 main 627 627 P________PO___ IO121949 10.3000 92.0925 -1 10.3000 92.0925 TC 25 10.3000 92.1000 1 4 296
1949294N10095 1949 95 NI BB NOT_NAMED 1949-10-23 18:00:00 TS 10.3875 91.9167 main 649 649 O________OP___ jtwc_io IO121949 10.4000 91.9000 -1 10.4000 91.9000 TC 25 10.3626 91.9501 1 3 294
1949294N10095 1949 95 NI BB NOT_NAMED 1949-10-23 21:00:00 TS 10.4424 91.7724 main 655 655 P________PP___ IO121949 10.4500 91.7575 -1 10.4500 91.7575 TC 25 10.4272 91.8022 1 3 291
1949294N10095 1949 95 NI BB NOT_NAMED 1949-10-24 00:00:00 TS 10.5011 91.6094 main 666 661 O________OP___ jtwc_io IO121949 10.5000 91.6000 -1 10.5000 91.6000 TC 25 10.5032 91.6282 1 4 291
1949294N10095 1949 95 NI BB NOT_NAMED 1949-10-24 03:00:00 TS 10.5900 91.3916 main 666 666 P________PO___ IO121949 10.5849 91.3875 -1 10.5849 91.3875 TC 25 10.6000 91.4000 1 6 292
1949294N10095 1949 95 NI BB NOT_NAMED 1949-10-24 06:00:00 TS 10.7069 91.0888 main 673 673 O________OP___ jtwc_io IO121949 10.7000 91.1000 -1 10.7000 91.1000 TC 25 10.7206 91.0663 1 7 291
1949294N10095 1949 95 NI BB NOT_NAMED 1949-10-24 09:00:00 TS 10.8443 90.7034 main 688 679 P________PP___ IO121949 10.8351 90.7150 -1 10.8351 90.7150 TC 25 10.8629 90.6801 1 8 291
1949294N10095 1949 95 NI BB NOT_NAMED 1949-10-24 12:00:00 TS 11.0079 90.2929 main 696 695 O________OP___ jtwc_io IO121949 11.0000 90.3000 -1 11.0000 90.3000 TC 25 11.0237 90.2788 1 8 294
1949294N10095 1949 95 NI BB NOT_NAMED 1949-10-24 15:00:00 TS 11.1950 89.9183 main 708 707 P________PO___ IO121949 11.1925 89.9275 -1 11.1925 89.9275 TC 25 11.2000 89.9000 1 8 300
1949294N10095 1949 95 NI BB NOT_NAMED 1949-10-24 18:00:00 TS 11.3883 89.6121 main 715 715 O________OP___ jtwc_io IO121949 11.4000 89.6000 -1 11.4000 89.6000 TC 25 11.3648 89.6363 1 7 305
1949294N10095 1949 95 NI BB NOT_NAMED 1949-10-24 21:00:00 TS 11.5771 89.3696 main 715 715 P________PP___ IO121949 11.5924 89.3574 -1 11.5924 89.3574 TC 30 11.5467 89.3940 1 6 309
1949294N10095 1949 95 NI BB NOT_NAMED 1949-10-25 00:00:00 TS 11.7851 89.1099 main 724 724 O________OP___ jtwc_io IO121949 11.8000 89.1000 -1 11.8000 89.1000 TC 35 11.7553 89.1298 1 7 307
1949294N10095 1949 95 NI BB NOT_NAMED 1949-10-25 03:00:00 TS 12.0183 88.7632 main 734 734 P________PO___ IO121949 12.0274 88.7448 -1 12.0274 88.7448 TC 35 12.0000 88.8000 2 9 303
1949294N10095 1949 95 NI BB NOT_NAMED 1949-10-25 06:00:00 TS 12.3006 88.3064 main 759 742 O________OP___ jtwc_io IO121949 12.3000 88.3000 -1 12.3000 88.3000 TC 35 12.3018 88.3191 2 12 302
1949294N10095 1949 95 NI BB NOT_NAMED 1949-10-25 09:00:00 TS 12.6404 87.7629 main 742 663 P________PP___ IO121949 12.6426 87.7576 -1 12.6426 87.7576 TC 35 12.6359 87.7734 2 13 303
1949294N10095 1949 95 NI BB NOT_NAMED 1949-10-25 12:00:00 TS 12.9923 87.2053 main 663 600 O________OP___ jtwc_io IO121949 13.0000 87.2000 -1 13.0000 87.2000 TC 35 12.9769 87.2159 2 12 303
1949294N10095 1949 95 NI BB NOT_NAMED 1949-10-25 15:00:00 TS 13.3099 86.7133 main 600 545 P________PO___ IO121949 13.3149 86.7199 -1 13.3149 86.7199 TC 35 13.3000 86.7000 3 11 304
1949294N10095 1949 95 NI BB NOT_NAMED 1949-10-25 18:00:00 TS 13.5944 86.2957 main 545 497 O________OP___ jtwc_io IO121949 13.6000 86.3000 -1 13.6000 86.3000 TC 35 13.5833 86.2871 3 9 306
1949294N10095 1949 95 NI BB NOT_NAMED 1949-10-25 21:00:00 TS 13.8581 85.9264 main 490 451 P________PP___ IO121949 13.8649 85.9274 -1 13.8649 85.9274 TC 35 13.8444 85.9245 3 8 306
1949294N10095 1949 95 NI BB NOT_NAMED 1949-10-26 00:00:00 TS 14.0945 85.5999 main 451 411 O________OP___ jtwc_io IO121949 14.1000 85.6000 -1 14.1000 85.6000 TC 35 14.0834 85.5997 3 8 306
1949294N10095 1949 95 NI BB NOT_NAMED 1949-10-26 03:00:00 TS 14.3100 85.2900 main 411 372 P________PO___ IO121949 14.3150 85.2849 -1 14.3150 85.2849 TC 35 14.3000 85.3000 3 7 305
1949294N10095 1949 95 NI BB NOT_NAMED 1949-10-26 06:00:00 TS 14.4987 85.0051 main 372 349 O________OP___ jtwc_io IO121949 14.5000 85.0000 -1 14.5000 85.0000 TC 35 14.4962 85.0152 3 6 304
1949294N10095 1949 95 NI BB NOT_NAMED 1949-10-26 09:00:00 TS 14.6573 84.7497 main 333 309 P________PP___ IO121949 14.6499 84.7499 -1 14.6499 84.7499 TC 50 14.6720 84.7494 3 6 302
1949294N10095 1949 95 NI BB NOT_NAMED 1949-10-26 12:00:00 TS 14.8123 84.4947 main 309 270 O________OP___ jtwc_io IO121949 14.8000 84.5000 -1 14.8000 84.5000 TC 65 14.8368 84.4840 3 6 304
1949294N10095 1949 95 NI BB NOT_NAMED 1949-10-26 15:00:00 TS 14.9999 84.2150 main 270 232 P________PO___ IO121949 14.9999 84.2225 -1 14.9999 84.2225 TC 65 15.0000 84.2000 4 7 303
1949294N10095 1949 95 NI BB NOT_NAMED 1949-10-26 18:00:00 TS 15.1917 83.8892 main 232 194 O________OP___ jtwc_io IO121949 15.2000 83.9000 -1 15.2000 83.9000 TC 65 15.1750 83.8674 4 8 297
1949294N10095 1949 95 NI BB NOT_NAMED 1949-10-26 21:00:00 TS 15.3501 83.5049 main 185 149 P________PP___ IO121949 15.3501 83.4999 -1 15.3501 83.4999 TC 65 15.3500 83.5149 4 8 293
1949294N10095 1949 95 NI BB NOT_NAMED 1949-10-27 00:00:00 TS 15.5083 83.1183 main 149 114 O________OP___ jtwc_io IO121949 15.5000 83.1000 -1 15.5000 83.1000 TC 65 15.5250 83.1549 4 8 297
1949294N10095 1949 95 NI BB NOT_NAMED 1949-10-27 03:00:00 TS 15.6999 82.7950 main 114 79 P________PO___ IO121949 15.6999 82.7924 -1 15.6999 82.7924 TC 50 15.7000 82.8000 4 7 302
1949294N10095 1949 95 NI BB NOT_NAMED 1949-10-27 06:00:00 TS 15.8903 82.4878 main 79 55 O________OP___ jtwc_io IO121949 15.9000 82.5000 -1 15.9000 82.5000 TC 35 15.8708 82.4635 4 7 299
1949294N10095 1949 95 NI BB NOT_NAMED 1949-10-27 09:00:00 TS 16.0474 82.1448 main 49 15 P________PP___ IO121949 16.0500 82.1499 -1 16.0500 82.1499 TC 35 16.0423 82.1347 4 7 296
1949294N10095 1949 95 NI BB NOT_NAMED 1949-10-27 12:00:00 TS 16.2059 81.8045 main 15 0 O________OP___ jtwc_io IO121949 16.2000 81.8000 -1 16.2000 81.8000 TC 35 16.2177 81.8135 4 7 299
1949294N10095 1949 95 NI BB NOT_NAMED 1949-10-27 15:00:00 TS 16.3949 81.4950 main 0 0 P________PO___ IO121949 16.3924 81.4925 -1 16.3924 81.4925 TC 35 16.4000 81.5000 3 7 303
1949294N10095 1949 95 NI BB NOT_NAMED 1949-10-27 18:00:00 TS 16.5882 81.1854 main 0 0 O________OP___ jtwc_io IO121949 16.6000 81.2000 -1 16.6000 81.2000 TC 35 16.5645 81.1562 3 7 302
1949294N10095 1949 95 NI BB NOT_NAMED 1949-10-27 21:00:00 TS 16.7751 80.8699 main 0 0 P________PP___ IO121949 16.7925 80.8924 -1 16.7925 80.8924 TC 30 16.7402 80.8250 3 7 304
1949294N10095 1949 95 NI BB NOT_NAMED 1949-10-28 00:00:00 TS 16.9819 80.5771 main 0 0 O________OP___ jtwc_io IO121949 17.0000 80.6000 -1 17.0000 80.6000 TC 25 16.9458 80.5313 3 7 309
1949294N10095 1949 95 NI BB NOT_NAMED 1949-10-28 03:00:00 TS 17.2133 80.3083 main 0 0 P________PO___ IO121949 17.2200 80.3125 -1 17.2200 80.3125 TC 25 17.2000 80.3000 1 7 320
1949294N10095 1949 95 NI BB NOT_NAMED 1949-10-28 06:00:00 TS 17.5109 80.1160 main 0 0 O________OP___ jtwc_io IO121949 17.5000 80.1000 -1 17.5000 80.1000 TC 25 17.5326 80.1480 1 7 338
1949294N10095 1949 95 NI BB NOT_NAMED 1949-10-28 09:00:00 TS 17.8940 80.0282 main 0 0 P________PP___ IO121949 17.8849 80.0124 -1 17.8849 80.0124 TC 25 17.9122 80.0598 1 8 353
1949294N10095 1949 95 NI BB NOT_NAMED 1949-10-28 12:00:00 TS 18.3036 80.0056 main 0 0 O________OP___ jtwc_io IO121949 18.3000 80.0000 -1 18.3000 80.0000 TC 25 18.3108 80.0167 1 8 358
1949294N10095 1949 95 NI BB NOT_NAMED 1949-10-28 15:00:00 TS 18.6717 79.9950 main 0 0 P________PO___ IO121949 18.6575 79.9925 -1 18.6575 79.9925 TC 25 18.7000 80.0000 1 7 0
1949294N10095 1949 95 NI BB NOT_NAMED 1949-10-28 18:00:00 TS 18.9969 79.9874 main 0 0 O________OP___ jtwc_io IO121949 19.0000 80.0000 -1 19.0000 80.0000 TC 25 18.9906 79.9623 1 7 358
1949294N10095 1949 95 NI BB NOT_NAMED 1949-10-28 21:00:00 TS 19.3200 79.9826 main 0 0 P________PP___ IO121949 19.3425 80.0000 -1 19.3425 80.0000 TC 25 19.2750 79.9479 1 7 358
1949294N10095 1949 95 NI BB NOT_NAMED 1949-10-29 00:00:00 TS 19.6656 79.9865 main 0 0 O________OP___ jtwc_io IO121949 19.7000 80.0000 -1 19.7000 80.0000 TC 25 19.5969 79.9594 1 7 2
1949294N10095 1949 95 NI BB NOT_NAMED 1949-10-29 03:00:00 TS 20.0317 79.9901 main 0 0 P________PO___ IO121949 20.0475 79.9852 -1 20.0475 79.9852 TC 25 20.0000 80.0000 1 9 1
1949294N10095 1949 95 NI BB NOT_NAMED 1949-10-29 06:00:00 TS 20.5386 80.0115 main 0 0 O________OP___ jtwc_io IO121949 20.5000 80.0000 -1 20.5000 80.0000 TC 25 20.6157 80.0346 1 12 4
1949294N10095 1949 95 NI BB NOT_NAMED 1949-10-29 09:00:00 TS 21.2240 80.0807 main 0 0 P________PP___ IO121949 21.1850 80.0700 -1 21.1850 80.0700 TC 25 21.3021 80.1022 1 14 8
1949294N10095 1949 95 NI BB NOT_NAMED 1949-10-29 12:00:00 TS 21.9208 80.2063 main 0 0 O________OP___ jtwc_io IO121949 21.9000 80.2000 -1 21.9000 80.2000 TC 25 21.9625 80.2188 1 13 12
1949294N10095 1949 95 NI BB NOT_NAMED 1949-10-29 15:00:00 TS 22.4933 80.3749 main 0 0 P________PO___ IO121949 22.4899 80.3624 -1 22.4899 80.3624 TC 25 22.5000 80.4000 1 10 22
1949294N10095 1949 95 NI BB NOT_NAMED 1949-10-29 18:00:00 TS 22.8772 80.6221 main 0 0 O________OP___ jtwc_io IO121949 22.9000 80.6000 -1 22.9000 80.6000 TC 25 22.8430 80.6553 1 8 43
1949294N10095 1949 95 NI BB NOT_NAMED 1949-10-29 21:00:00 TS 23.0491 80.9446 main 0 0 P________PP___ IO121949 23.0702 80.9252 -1 23.0702 80.9252 TC 25 23.0209 80.9706 1 7 71
1949294N10095 1949 95 NI BB NOT_NAMED 1949-10-30 00:00:00 TS 23.0942 81.3127 main 0 0 O________OP___ jtwc_io IO121949 23.1000 81.3000 -1 23.1000 81.3000 TC 25 23.0883 81.3255 1 7 86
1949294N10095 1949 95 NI BB NOT_NAMED 1949-10-30 03:00:00 NR 23.1000 81.7000 main 0 __________O___ IO121949 -1 TC 23.1000 81.7000 1 7 89

IBTrACS Databaseについて

本データベースは、米国NOAAが公開する1842年以降の世界の熱帯低気圧のベストトラックデータアーカイブInternational Best Track Archive for Climate Stewardship (IBTrACS)を、ウェブで閲覧しやすい形式に変換したものです。

最終更新日:2021-12-06